To NAV CANADA Home Page Login to a new session Search on AWWS site Disclaimer Vers la page française équivalente Tips FAQ What's new on the site To the Forecasts and Observations / NOTAM section To "File a Flight Plan" website Publications and other links Update of the User's profile FIC Telephone Numbers My Weather Data Folder Route Weather Data Regional Weather Data Local Weather Data To the Forecasts and Observations / NOTAM section
Request Generated 04/25/2019 at 08:32:48 UTC . Weather information available at that time is displayed.

METAR/TAF

SLAVE LAKE/AB    (show WxCam)

METAR CYZH 250800Z AUTO 25008KT 9SM CLR 01/M13 A3011 RMK SLP222=
METAR CYZH 250700Z AUTO 25010G15KT 9SM CLR 02/M12 A3011 RMK SLP219=
METAR CYZH 250600Z AUTO 26009KT 9SM CLR 02/M11 A3010 RMK SLP216=

TAF CYZH 250638Z 2507/2519 26008KT P6SM SKC
FM251600 29015KT P6SM FEW080 SCT130
RMK FCST BASED ON AUTO OBS. NXT FCST BY 251300Z=
Your time UTC time
Weather data provided by Environment Canada and NAV CANADA